createdAt,value
2023-04-17T00:01:40.669Z,9.40
2023-04-17T00:04:11.341Z,9.30
2023-04-17T00:06:39.606Z,9.40
2023-04-17T00:09:06.660Z,9.40
2023-04-17T00:11:33.765Z,9.40
2023-04-17T00:14:00.769Z,9.40
2023-04-17T00:16:28.221Z,9.40
2023-04-17T00:18:55.825Z,9.30
2023-04-17T00:21:24.816Z,9.30
2023-04-17T00:23:52.070Z,9.30
2023-04-17T00:26:20.038Z,9.30
2023-04-17T00:28:50.563Z,9.30
2023-04-17T00:31:17.960Z,9.40
2023-04-17T00:33:46.185Z,9.40
2023-04-17T00:36:13.892Z,9.40
2023-04-17T00:38:40.923Z,9.40
2023-04-17T00:41:08.016Z,9.30
2023-04-17T00:43:35.103Z,9.30
2023-04-17T00:46:02.564Z,9.40
2023-04-17T00:48:29.785Z,9.30
2023-04-17T00:51:03.001Z,9.30
2023-04-17T00:53:32.012Z,9.30
2023-04-17T00:56:05.965Z,9.30
2023-04-17T00:58:34.779Z,9.30
2023-04-17T01:01:01.579Z,9.30
2023-04-17T01:03:30.380Z,9.40
2023-04-17T01:05:57.277Z,9.30
2023-04-17T01:08:24.726Z,9.30
2023-04-17T01:10:51.554Z,9.30
2023-04-17T01:13:18.482Z,9.30
2023-04-17T01:15:47.070Z,9.30
2023-04-17T01:18:14.533Z,9.40
2023-04-17T01:20:41.338Z,9.40
2023-04-17T01:23:08.332Z,9.30
2023-04-17T01:25:36.122Z,9.30
2023-04-17T01:28:04.156Z,9.30
2023-04-17T01:30:31.053Z,9.30
2023-04-17T01:32:57.993Z,9.30
2023-04-17T01:35:25.191Z,9.20
2023-04-17T01:37:52.649Z,9.20
2023-04-17T01:40:19.489Z,9.20
2023-04-17T01:42:46.325Z,9.40
2023-04-17T01:45:13.898Z,9.40
2023-04-17T01:47:40.873Z,9.30
2023-04-17T01:50:09.308Z,9.30
2023-04-17T01:52:36.680Z,9.40
2023-04-17T01:55:06.053Z,9.30
2023-04-17T01:57:33.936Z,9.30
2023-04-17T02:00:01.110Z,9.40
2023-04-17T02:02:28.028Z,9.50
2023-04-17T02:04:55.965Z,9.40
2023-04-17T02:07:22.875Z,9.40
2023-04-17T02:09:49.734Z,9.40
2023-04-17T02:12:16.583Z,9.30
2023-04-17T02:14:44.788Z,9.30
2023-04-17T02:17:11.632Z,9.20
2023-04-17T02:19:38.746Z,9.30
2023-04-17T02:22:05.727Z,9.20
2023-04-17T02:24:32.712Z,9.20
2023-04-17T02:26:59.619Z,9.20
2023-04-17T02:29:26.401Z,9.30
2023-04-17T02:31:54.557Z,9.30
2023-04-17T02:34:21.662Z,9.40
2023-04-17T02:36:48.527Z,9.40
2023-04-17T02:39:15.447Z,9.50
2023-04-17T02:41:42.410Z,9.40
2023-04-17T02:44:09.688Z,9.40
2023-04-17T02:46:36.855Z,9.40
2023-04-17T02:49:04.105Z,9.40
2023-04-17T02:51:31.265Z,9.40
2023-04-17T02:53:58.032Z,9.40
2023-04-17T02:56:25.170Z,9.30
2023-04-17T02:58:51.955Z,9.30
2023-04-17T03:01:19.254Z,9.30
2023-04-17T03:03:47.131Z,9.20
2023-04-17T03:06:14.033Z,9.30
2023-04-17T03:08:42.284Z,9.20
2023-04-17T03:11:09.096Z,9.20
2023-04-17T03:13:39.044Z,9.20
2023-04-17T03:16:06.478Z,9.20
2023-04-17T03:18:36.486Z,9.20
2023-04-17T03:21:03.953Z,9.30
2023-04-17T03:23:30.857Z,9.30
2023-04-17T03:25:57.917Z,9.20
2023-04-17T03:28:24.854Z,9.30
2023-04-17T03:30:52.191Z,9.20
2023-04-17T03:33:20.373Z,9.20
2023-04-17T03:35:47.530Z,9.20
2023-04-17T03:38:14.725Z,9.20
2023-04-17T03:40:42.019Z,9.20
2023-04-17T03:43:09.158Z,9.20
2023-04-17T03:45:36.615Z,9.20
2023-04-17T03:48:04.186Z,9.20
2023-04-17T03:50:31.171Z,9.20
2023-04-17T03:52:58.439Z,9.20
2023-04-17T03:55:26.198Z,9.20
2023-04-17T03:57:53.166Z,9.20
2023-04-17T04:00:20.088Z,9.30
2023-04-17T04:02:47.360Z,9.30
2023-04-17T04:05:15.292Z,9.20
2023-04-17T04:07:42.297Z,9.20
2023-04-17T04:10:09.830Z,9.20
2023-04-17T04:12:38.366Z,9.30
2023-04-17T04:15:08.216Z,9.30
2023-04-17T04:17:35.804Z,9.30
2023-04-17T04:20:02.778Z,9.30
2023-04-17T04:22:29.741Z,9.40
2023-04-17T04:24:58.164Z,9.30
2023-04-17T04:27:25.182Z,9.40
2023-04-17T04:29:52.053Z,9.40
2023-04-17T04:32:19.556Z,9.30
2023-04-17T04:34:46.351Z,9.40
2023-04-17T04:37:16.131Z,9.30
2023-04-17T04:39:43.534Z,9.30
2023-04-17T04:42:10.584Z,9.30
2023-04-17T04:44:38.929Z,9.30
2023-04-17T04:47:06.449Z,9.30
2023-04-17T04:49:33.682Z,9.30
2023-04-17T04:52:00.834Z,9.30
2023-04-17T04:54:27.688Z,9.30
2023-04-17T04:56:57.291Z,9.40
2023-04-17T04:59:24.109Z,9.40
2023-04-17T05:01:51.182Z,9.50
2023-04-17T05:04:19.960Z,9.50
2023-04-17T05:06:48.164Z,9.50
2023-04-17T05:09:16.957Z,9.60
2023-04-17T05:11:44.307Z,9.80
2023-04-17T05:14:11.286Z,9.80
2023-04-17T05:16:38.136Z,9.80
2023-04-17T05:19:05.005Z,9.80
2023-04-17T05:21:32.308Z,9.80
2023-04-17T05:24:00.386Z,9.80
2023-04-17T05:26:29.821Z,9.90
2023-04-17T05:28:56.671Z,9.90
2023-04-17T05:31:24.324Z,9.70
2023-04-17T05:33:51.266Z,9.80
2023-04-17T05:36:18.339Z,9.80
2023-04-17T05:38:46.333Z,9.80
2023-04-17T05:41:13.715Z,9.80
2023-04-17T05:43:42.682Z,9.80
2023-04-17T05:46:09.556Z,9.80
2023-04-17T05:48:37.004Z,9.80
2023-04-17T05:51:11.439Z,9.80
2023-04-17T05:53:38.561Z,9.80
2023-04-17T05:56:05.943Z,9.80
2023-04-17T05:58:32.850Z,9.70
2023-04-17T06:01:01.585Z,9.70
2023-04-17T06:03:29.100Z,9.80
2023-04-17T06:05:57.284Z,9.80
2023-04-17T06:08:24.433Z,9.80
2023-04-17T06:10:52.386Z,9.90
2023-04-17T06:13:19.346Z,9.90
2023-04-17T06:15:46.345Z,9.90
2023-04-17T06:18:16.126Z,9.90
2023-04-17T06:20:45.012Z,9.90
2023-04-17T06:23:12.425Z,9.90
2023-04-17T06:25:39.742Z,10.00
2023-04-17T06:28:06.548Z,10.10
2023-04-17T06:30:33.421Z,10.20
2023-04-17T06:33:00.491Z,10.20
2023-04-17T06:35:27.757Z,10.20
2023-04-17T06:37:56.084Z,10.30
2023-04-17T06:40:22.919Z,10.30
2023-04-17T06:43:03.538Z,10.20
2023-04-17T06:45:32.294Z,10.10
2023-04-17T06:50:46.927Z,10.10
2023-04-17T06:53:13.755Z,10.00
2023-04-17T06:55:40.636Z,9.90
2023-04-17T06:58:12.367Z,10.00
2023-04-17T07:00:39.299Z,10.00
2023-04-17T07:03:06.736Z,10.20
2023-04-17T07:05:34.457Z,10.10
2023-04-17T07:08:01.670Z,10.20
2023-04-17T07:10:28.547Z,10.10
2023-04-17T07:12:55.545Z,10.20
2023-04-17T07:15:22.769Z,10.30
2023-04-17T07:17:49.693Z,10.20
2023-04-17T07:20:17.011Z,10.10
2023-04-17T07:22:44.029Z,10.20
2023-04-17T07:25:10.953Z,10.20
2023-04-17T07:27:39.744Z,10.20
2023-04-17T07:30:09.962Z,10.20
2023-04-17T07:32:36.855Z,10.00
2023-04-17T07:35:04.640Z,10.00
2023-04-17T07:37:31.817Z,10.00
2023-04-17T07:39:58.954Z,10.00
2023-04-17T07:42:26.138Z,10.00
2023-04-17T07:44:53.328Z,10.20
2023-04-17T07:47:20.259Z,10.30
2023-04-17T07:49:49.353Z,10.30
2023-04-17T07:52:18.314Z,10.20
2023-04-17T07:54:45.697Z,10.30
2023-04-17T07:57:14.665Z,10.40
2023-04-17T07:59:41.767Z,10.50
2023-04-17T08:02:08.714Z,10.60
2023-04-17T08:04:35.931Z,10.80
2023-04-17T08:07:03.251Z,11.00
2023-04-17T08:09:31.958Z,11.20
2023-04-17T08:11:58.802Z,11.60
2023-04-17T08:14:25.941Z,11.90
2023-04-17T08:16:53.291Z,12.00
2023-04-17T08:19:20.328Z,12.10
2023-04-17T08:21:50.984Z,11.80
2023-04-17T08:24:19.521Z,12.10
2023-04-17T08:26:47.812Z,12.20
2023-04-17T08:29:15.317Z,12.10
2023-04-17T08:31:42.557Z,12.00
2023-04-17T08:34:15.110Z,11.90
2023-04-17T08:37:06.747Z,11.80
2023-04-17T08:39:35.070Z,11.70
2023-04-17T08:42:11.519Z,11.80
2023-04-17T08:45:49.386Z,12.10
2023-04-17T08:48:16.755Z,11.80
2023-04-17T08:50:48.298Z,12.00
2023-04-17T08:53:17.190Z,12.10
2023-04-17T08:56:08.970Z,12.20
2023-04-17T08:58:38.066Z,12.40
2023-04-17T09:01:47.468Z,12.40
2023-04-17T09:04:39.226Z,12.50
2023-04-17T09:07:08.083Z,12.50
2023-04-17T09:09:48.425Z,12.70
2023-04-17T09:12:15.915Z,12.70
2023-04-17T09:14:43.723Z,12.80
2023-04-17T09:17:11.462Z,12.60
2023-04-17T09:19:38.845Z,12.70
2023-04-17T09:22:23.653Z,12.70
2023-04-17T09:24:50.812Z,12.70
2023-04-17T09:27:25.729Z,12.60
2023-04-17T09:30:12.255Z,12.60
2023-04-17T09:32:43.443Z,13.00
2023-04-17T09:35:13.948Z,12.90
2023-04-17T09:37:50.771Z,12.90
2023-04-17T09:40:22.620Z,12.90
2023-04-17T09:43:10.033Z,13.10
2023-04-17T09:45:42.875Z,13.00
2023-04-17T09:48:11.568Z,13.10
2023-04-17T09:50:39.231Z,13.20
2023-04-17T09:53:07.936Z,13.20
2023-04-17T09:55:37.119Z,13.30
2023-04-17T09:58:06.397Z,13.80
2023-04-17T10:00:33.398Z,14.10
2023-04-17T10:03:00.779Z,13.80
2023-04-17T10:05:30.301Z,14.10
2023-04-17T10:07:57.582Z,13.90
2023-04-17T10:10:35.074Z,13.90
2023-04-17T10:13:31.081Z,14.40
2023-04-17T10:15:58.172Z,14.80
2023-04-17T10:18:27.909Z,15.30
2023-04-17T10:21:30.226Z,15.60
2023-04-17T10:23:57.086Z,14.90
2023-04-17T10:26:36.313Z,14.60
2023-04-17T10:29:03.467Z,14.90
2023-04-17T10:32:13.756Z,15.00
2023-04-17T10:34:43.722Z,15.60
2023-04-17T10:37:16.385Z,15.50
2023-04-17T10:39:57.093Z,15.80
2023-04-17T10:42:26.032Z,15.50
2023-04-17T10:44:58.751Z,15.60
2023-04-17T10:47:37.603Z,14.90
2023-04-17T10:50:08.834Z,15.10
2023-04-17T10:52:40.271Z,15.00
2023-04-17T10:55:23.239Z,15.10
2023-04-17T10:57:58.069Z,15.60
2023-04-17T11:00:38.243Z,15.90
2023-04-17T11:03:06.941Z,16.10
2023-04-17T11:05:35.924Z,15.90
2023-04-17T11:08:04.927Z,16.30
2023-04-17T11:10:37.352Z,16.40
2023-04-17T11:13:06.818Z,16.70
2023-04-17T11:15:35.583Z,17.00
2023-04-17T11:18:03.693Z,17.10
2023-04-17T11:20:32.032Z,17.40
2023-04-17T11:23:03.423Z,17.90
2023-04-17T11:25:34.748Z,17.40
2023-04-17T11:28:06.028Z,16.90
2023-04-17T11:30:42.754Z,16.40
2023-04-17T11:33:10.046Z,15.90
2023-04-17T11:35:39.401Z,15.60
2023-04-17T11:38:12.267Z,15.40
2023-04-17T11:40:44.255Z,15.40
2023-04-17T11:43:11.897Z,15.80
2023-04-17T11:45:42.130Z,15.80
2023-04-17T11:48:14.216Z,16.00
2023-04-17T11:50:44.235Z,16.00
2023-04-17T11:53:17.158Z,16.20
2023-04-17T11:55:50.244Z,16.40
2023-04-17T11:58:17.148Z,16.60
2023-04-17T12:00:44.354Z,16.50
2023-04-17T12:03:31.161Z,16.30
2023-04-17T12:06:04.001Z,16.80
2023-04-17T12:08:31.842Z,17.10
2023-04-17T12:10:59.257Z,16.90
2023-04-17T12:13:26.321Z,16.50
2023-04-17T12:15:53.851Z,16.60
2023-04-17T12:18:21.072Z,16.50
2023-04-17T12:20:48.928Z,16.40
2023-04-17T12:23:16.697Z,16.00
2023-04-17T12:25:44.916Z,15.90
2023-04-17T12:28:11.791Z,15.90
2023-04-17T12:30:40.841Z,16.20
2023-04-17T12:33:08.314Z,16.00
2023-04-17T12:35:35.482Z,16.10
2023-04-17T12:38:02.801Z,16.20
2023-04-17T12:40:29.767Z,16.30
2023-04-17T12:42:56.997Z,16.50
2023-04-17T12:45:25.861Z,16.80
2023-04-17T12:47:53.224Z,16.80
2023-04-17T12:50:20.362Z,16.90
2023-04-17T12:52:50.233Z,16.30
2023-04-17T12:55:17.396Z,15.80
2023-04-17T12:57:44.298Z,15.60
2023-04-17T13:00:12.342Z,15.70
2023-04-17T13:02:39.365Z,15.60
2023-04-17T13:05:07.677Z,15.40
2023-04-17T13:07:34.965Z,15.40
2023-04-17T13:10:02.362Z,15.30
2023-04-17T13:12:29.567Z,15.90
2023-04-17T13:15:00.279Z,16.90
2023-04-17T13:17:27.216Z,18.20
2023-04-17T13:19:55.625Z,17.50
2023-04-17T13:22:23.939Z,16.90
2023-04-17T13:24:50.816Z,16.90
2023-04-17T13:27:18.400Z,16.80
2023-04-17T13:29:45.588Z,16.10
2023-04-17T13:32:12.414Z,15.80
2023-04-17T13:34:39.542Z,15.60
2023-04-17T13:37:07.278Z,15.70
2023-04-17T13:39:34.570Z,15.60
2023-04-17T13:42:01.763Z,15.60
2023-04-17T13:44:29.007Z,15.90
2023-04-17T13:46:55.926Z,16.10
2023-04-17T13:49:24.209Z,16.20
2023-04-17T13:51:51.313Z,16.30
2023-04-17T13:54:19.215Z,16.10
2023-04-17T13:56:46.219Z,16.10
2023-04-17T13:59:13.331Z,16.30
2023-04-17T14:01:40.611Z,16.40
2023-04-17T14:04:08.154Z,16.20
2023-04-17T14:06:35.462Z,16.20
2023-04-17T14:09:02.749Z,15.90
2023-04-17T14:11:29.767Z,16.00
2023-04-17T14:13:56.957Z,16.20
2023-04-17T14:16:23.951Z,16.30
2023-04-17T14:18:51.727Z,16.60
2023-04-17T14:21:18.820Z,16.60
2023-04-17T14:23:46.231Z,16.40
2023-04-17T14:26:13.328Z,16.30
2023-04-17T14:28:40.808Z,16.00
2023-04-17T14:31:07.713Z,16.10
2023-04-17T14:33:37.602Z,16.00
2023-04-17T14:36:05.940Z,15.90
2023-04-17T14:38:34.111Z,15.80
2023-04-17T14:41:01.088Z,15.60
2023-04-17T14:43:28.054Z,15.50
2023-04-17T14:45:55.402Z,15.40
2023-04-17T14:48:24.444Z,15.40
2023-04-17T14:50:51.653Z,15.30
2023-04-17T14:53:21.206Z,15.20
2023-04-17T14:55:48.998Z,15.10
2023-04-17T14:58:17.051Z,15.10
2023-04-17T15:00:43.926Z,15.10
2023-04-17T15:03:11.205Z,15.10
2023-04-17T15:05:38.090Z,15.10
2023-04-17T15:08:04.921Z,15.00
2023-04-17T15:10:40.559Z,14.90
2023-04-17T15:13:15.058Z,14.80
2023-04-17T15:15:41.943Z,14.70
2023-04-17T15:18:08.952Z,14.60
2023-04-17T15:20:39.513Z,14.70
2023-04-17T15:23:08.803Z,14.50
2023-04-17T15:25:35.958Z,14.50
2023-04-17T15:28:02.814Z,14.50
2023-04-17T15:30:29.841Z,14.50
2023-04-17T15:32:57.717Z,14.50
2023-04-17T15:35:24.868Z,14.60
2023-04-17T15:37:53.102Z,14.40
2023-04-17T15:40:19.955Z,14.40
2023-04-17T15:42:47.089Z,14.50
2023-04-17T15:45:14.968Z,14.40
2023-04-17T15:47:41.952Z,14.60
2023-04-17T15:50:09.619Z,14.70
2023-04-17T15:52:37.886Z,15.00
2023-04-17T15:55:05.087Z,15.80
2023-04-17T15:57:32.242Z,16.40
2023-04-17T15:59:59.132Z,17.00
2023-04-17T16:02:27.515Z,17.30
2023-04-17T16:04:54.568Z,17.80
2023-04-17T16:07:21.674Z,18.00
2023-04-17T16:09:49.443Z,17.60
2023-04-17T16:12:16.805Z,17.40
2023-04-17T16:14:43.729Z,17.50
2023-04-17T16:17:10.891Z,17.40
2023-04-17T16:19:38.163Z,17.50
2023-04-17T16:22:05.310Z,17.20
2023-04-17T16:24:32.153Z,16.70
2023-04-17T16:27:04.306Z,16.20
2023-04-17T16:29:33.134Z,15.80
2023-04-17T16:32:00.898Z,15.50
2023-04-17T16:34:28.005Z,15.40
2023-04-17T16:36:54.910Z,15.30
2023-04-17T16:39:22.016Z,15.20
2023-04-17T16:41:52.893Z,15.10
2023-04-17T16:44:20.685Z,15.30
2023-04-17T16:49:18.735Z,15.30
2023-04-17T16:51:45.703Z,15.20
2023-04-17T16:54:13.097Z,15.10
2023-04-17T16:56:40.491Z,15.00
2023-04-17T16:59:07.461Z,14.90
2023-04-17T17:01:34.402Z,14.90
2023-04-17T17:04:01.769Z,14.80
2023-04-17T17:06:29.179Z,14.60
2023-04-17T17:08:56.466Z,14.60
2023-04-17T17:11:24.600Z,14.70
2023-04-17T17:13:54.042Z,14.60
2023-04-17T17:16:21.305Z,14.50
2023-04-17T17:18:48.953Z,14.40
2023-04-17T17:21:15.940Z,14.40
2023-04-17T17:26:26.226Z,14.30
2023-04-17T17:28:53.607Z,14.30
2023-04-17T17:31:21.189Z,14.20
2023-04-17T17:33:54.102Z,14.30
2023-04-17T17:36:22.294Z,14.20
2023-04-17T17:38:55.694Z,14.10
2023-04-17T17:41:27.932Z,14.10
2023-04-17T17:43:56.388Z,14.00
2023-04-17T17:46:24.562Z,13.90
2023-04-17T17:48:51.590Z,14.00
2023-04-17T17:51:18.537Z,13.90
2023-04-17T17:53:45.879Z,13.80
2023-04-17T17:56:12.756Z,13.70
2023-04-17T17:58:39.627Z,13.60
2023-04-17T18:01:07.074Z,13.50
2023-04-17T18:03:35.484Z,13.40
2023-04-17T18:06:03.045Z,13.30
2023-04-17T18:08:29.946Z,13.20
2023-04-17T18:10:56.792Z,13.10
2023-04-17T18:13:23.893Z,13.00
2023-04-17T18:15:50.928Z,12.90
2023-04-17T18:18:17.840Z,12.90
2023-04-17T18:20:44.650Z,12.80
2023-04-17T18:23:11.623Z,12.70
2023-04-17T18:25:39.319Z,12.60
2023-04-17T18:28:06.960Z,12.50
2023-04-17T18:30:33.980Z,12.40
2023-04-17T18:33:01.263Z,12.40
2023-04-17T18:35:28.274Z,12.30
2023-04-17T18:37:56.497Z,12.20
2023-04-17T18:40:23.456Z,12.20
2023-04-17T18:42:50.443Z,12.10
2023-04-17T18:45:17.377Z,12.10
2023-04-17T18:47:46.827Z,11.90
2023-04-17T18:50:15.618Z,11.90
2023-04-17T18:52:46.798Z,11.80
2023-04-17T18:55:17.607Z,11.70
2023-04-17T18:57:44.704Z,11.60
2023-04-17T19:00:12.790Z,11.50
2023-04-17T19:02:47.318Z,11.40
2023-04-17T19:05:16.893Z,11.40
2023-04-17T19:07:43.745Z,11.30
2023-04-17T19:10:11.188Z,11.30
2023-04-17T19:12:38.193Z,11.20
2023-04-17T19:15:07.593Z,11.20
2023-04-17T19:17:37.998Z,11.10
2023-04-17T19:22:52.825Z,11.10
2023-04-17T19:25:20.230Z,11.10
2023-04-17T19:27:49.312Z,11.00
2023-04-17T19:30:16.572Z,11.10
2023-04-17T19:32:44.038Z,11.00
2023-04-17T19:35:11.237Z,10.90
2023-04-17T19:37:38.393Z,10.90
2023-04-17T19:40:24.518Z,10.80
2023-04-17T19:42:53.709Z,10.70
2023-04-17T19:45:23.773Z,10.60
2023-04-17T19:47:57.718Z,10.60
2023-04-17T19:50:28.975Z,10.50
2023-04-17T19:53:02.223Z,10.40
2023-04-17T19:55:31.091Z,10.40
2023-04-17T19:57:59.024Z,10.30
2023-04-17T20:00:26.167Z,10.20
2023-04-17T20:02:54.974Z,10.20
2023-04-17T20:05:25.739Z,10.10
2023-04-17T20:07:52.797Z,10.00
2023-04-17T20:10:20.431Z,10.00
2023-04-17T20:12:47.603Z,9.90
2023-04-17T20:15:20.433Z,9.90
2023-04-17T20:17:47.422Z,9.90
2023-04-17T20:20:14.924Z,9.80
2023-04-17T20:22:41.950Z,9.80
2023-04-17T20:25:09.283Z,9.70
2023-04-17T20:27:38.273Z,9.60
2023-04-17T20:30:06.273Z,9.60
2023-04-17T20:32:33.751Z,9.60
2023-04-17T20:35:01.991Z,9.50
2023-04-17T20:37:29.191Z,9.50
2023-04-17T20:39:56.223Z,9.50
2023-04-17T20:42:24.017Z,9.40
2023-04-17T20:44:51.027Z,9.40
2023-04-17T20:47:18.278Z,9.40
2023-04-17T20:49:45.213Z,9.40
2023-04-17T20:52:12.439Z,9.50
2023-04-17T20:54:39.725Z,9.60
2023-04-17T20:57:06.788Z,9.70
2023-04-17T20:59:34.018Z,9.70
2023-04-17T21:02:03.737Z,9.80
2023-04-17T21:04:30.874Z,9.70
2023-04-17T21:06:57.756Z,9.80
2023-04-17T21:09:26.484Z,9.90
2023-04-17T21:11:54.029Z,9.80
2023-04-17T21:14:21.802Z,9.80
2023-04-17T21:16:50.161Z,9.70
2023-04-17T21:19:17.801Z,9.60
2023-04-17T21:21:44.838Z,9.60
2023-04-17T21:24:12.306Z,9.60
2023-04-17T21:26:39.764Z,9.60
2023-04-17T21:29:07.049Z,9.60
2023-04-17T21:31:34.110Z,9.60
2023-04-17T21:34:01.145Z,9.70
2023-04-17T21:36:28.954Z,9.60
2023-04-17T21:39:05.431Z,9.60
2023-04-17T21:41:32.560Z,9.50
2023-04-17T21:44:06.549Z,9.50
2023-04-17T21:46:33.593Z,9.50
2023-04-17T21:49:01.236Z,9.40
2023-04-17T21:51:28.153Z,9.30
2023-04-17T21:53:55.087Z,9.20
2023-04-17T21:56:24.101Z,9.20
2023-04-17T21:58:51.914Z,9.10
2023-04-17T22:01:19.017Z,9.10
2023-04-17T22:03:46.240Z,9.10
2023-04-17T22:08:55.877Z,9.10
2023-04-17T22:11:23.256Z,9.00
2023-04-17T22:13:50.373Z,9.00
2023-04-17T22:16:17.529Z,9.10
2023-04-17T22:18:44.426Z,9.10
2023-04-17T22:21:13.081Z,9.10
2023-04-17T22:23:40.058Z,9.20
2023-04-17T22:26:34.040Z,9.10
2023-04-17T22:29:01.595Z,9.00
2023-04-17T22:31:28.862Z,9.00
2023-04-17T22:33:58.223Z,9.00
2023-04-17T22:36:25.993Z,8.90
2023-04-17T22:38:53.109Z,8.90
2023-04-17T22:41:20.408Z,8.80
2023-04-17T22:43:50.979Z,8.80
2023-04-17T22:46:18.048Z,8.70
2023-04-17T22:48:45.515Z,8.70
2023-04-17T22:51:13.217Z,8.60
2023-04-17T22:53:40.072Z,8.50
2023-04-17T22:56:07.375Z,8.50
2023-04-17T22:58:35.040Z,8.50
2023-04-17T23:01:03.133Z,8.40
2023-04-17T23:03:30.141Z,8.30
2023-04-17T23:05:57.493Z,8.20
2023-04-17T23:08:24.805Z,8.10
2023-04-17T23:11:03.526Z,8.10
2023-04-17T23:13:31.941Z,8.00
2023-04-17T23:15:58.862Z,8.10
2023-04-17T23:18:26.136Z,8.00
2023-04-17T23:20:53.089Z,8.00
2023-04-17T23:23:20.265Z,7.90
2023-04-17T23:25:47.349Z,7.70
2023-04-17T23:28:14.654Z,7.60
2023-04-17T23:30:41.813Z,7.50
2023-04-17T23:33:09.804Z,7.50
2023-04-17T23:35:36.853Z,7.40
2023-04-17T23:38:04.011Z,7.40
2023-04-17T23:40:32.889Z,7.30
2023-04-17T23:42:59.971Z,7.30
2023-04-17T23:45:26.913Z,7.20
2023-04-17T23:47:54.189Z,7.20
2023-04-17T23:50:21.142Z,7.20
2023-04-17T23:52:48.261Z,7.10
2023-04-17T23:55:15.402Z,7.00
2023-04-17T23:57:42.266Z,7.10
